Time,TemperatureF,DewpointF,PressureIn,WindDirection,WindDirectionDegrees,WindSpeedMPH,WindSpeedGustMPH,Humidity,HourlyPrecipIn,Conditions,Clouds,dailyrainin,SoftwareType,DateUTC
2013-09-25 00:01:00,49.4,49.4,29.79,SSE,166,0.0,0.0,100,0.00,,OVC055,0.00,VWS V14.01,2013-09-25 07:01:00,
2013-09-25 00:06:00,49.4,49.4,29.79,SSE,166,0.0,0.0,100,0.00,,OVC055,0.00,VWS V14.01,2013-09-25 07:06:00,
2013-09-25 00:11:00,49.4,49.4,29.79,SSE,166,0.0,0.0,100,0.00,,OVC055,0.00,VWS V14.01,2013-09-25 07:11:00,
2013-09-25 00:16:00,49.4,49.4,29.78,SSE,166,0.0,0.0,100,0.00,,OVC055,0.00,VWS V14.01,2013-09-25 07:16:00,
2013-09-25 00:21:00,49.4,49.4,29.78,SSE,166,0.0,1.0,100,0.00,,OVC055,0.00,VWS V14.01,2013-09-25 07:21:00,
2013-09-25 00:26:00,49.4,49.4,29.78,SSE,166,0.0,3.0,100,0.00,,OVC055,0.00,VWS V14.01,2013-09-25 07:26:00,
2013-09-25 00:31:00,49.2,49.2,29.78,SSE,166,0.0,3.0,100,0.00,,OVC055,0.00,VWS V14.01,2013-09-25 07:31:00,
2013-09-25 00:36:00,49.2,49.2,29.78,SSE,166,0.0,3.0,100,0.00,,OVC055,0.00,VWS V14.01,2013-09-25 07:36:00,
2013-09-25 00:41:00,49.2,49.2,29.78,SSE,166,0.0,3.0,100,0.00,,OVC055,0.00,VWS V14.01,2013-09-25 07:41:00,
2013-09-25 00:46:00,49.1,49.1,29.78,SSE,166,1.0,3.0,100,0.00,,OVC055,0.00,VWS V14.01,2013-09-25 07:46:00,
2013-09-25 00:51:00,48.9,48.9,29.78,SSE,166,0.0,3.0,100,0.00,,OVC055,0.00,VWS V14.01,2013-09-25 07:51:00,
2013-09-25 00:56:00,48.9,48.9,29.78,SSE,166,0.0,3.0,100,0.00,,OVC055,0.00,VWS V14.01,2013-09-25 07:56:00,
2013-09-25 01:01:00,48.9,48.9,29.78,SSE,166,0.0,0.0,100,0.00,,OVC055,0.00,VWS V14.01,2013-09-25 08:01:00,
2013-09-25 01:06:00,48.8,48.8,29.78,SSE,166,0.0,2.0,100,0.00,,OVC055,0.00,VWS V14.01,2013-09-25 08:06:00,
2013-09-25 01:11:00,48.8,48.8,29.78,SSE,166,0.0,2.0,100,0.00,,OVC055,0.00,VWS V14.01,2013-09-25 08:11:00,
2013-09-25 01:16:00,48.8,48.8,29.78,SSE,166,0.0,2.0,100,0.00,,OVC055,0.00,VWS V14.01,2013-09-25 08:16:00,
2013-09-25 01:21:00,48.6,48.6,29.78,SSE,166,0.0,2.0,100,0.00,,OVC055,0.00,VWS V14.01,2013-09-25 08:21:00,
2013-09-25 01:26:00,48.6,48.6,29.78,SSE,166,0.0,2.0,100,0.00,,OVC055,0.00,VWS V14.01,2013-09-25 08:26:00,
2013-09-25 01:31:00,48.6,48.6,29.78,SSE,166,0.0,2.0,100,0.00,,OVC055,0.00,VWS V14.01,2013-09-25 08:31:00,
2013-09-25 01:36:00,48.6,48.6,29.78,SSE,166,0.0,2.0,100,0.00,,OVC055,0.00,VWS V14.01,2013-09-25 08:36:00,
2013-09-25 01:41:00,48.6,48.6,29.78,SSE,166,2.0,2.0,100,0.00,,OVC055,0.00,VWS V14.01,2013-09-25 08:41:00,
2013-09-25 01:46:00,48.6,48.6,29.78,SSE,166,0.0,4.0,100,0.00,,OVC055,0.00,VWS V14.01,2013-09-25 08:46:00,
2013-09-25 01:51:00,48.6,48.6,29.78,SSE,166,0.0,4.0,100,0.00,,OVC055,0.00,VWS V14.01,2013-09-25 08:51:00,
2013-09-25 01:56:00,48.8,48.8,29.78,SSE,166,0.0,4.0,100,0.00,,OVC055,0.00,VWS V14.01,2013-09-25 08:56:00,
2013-09-25 02:01:00,48.8,48.8,29.79,SSE,166,0.0,0.0,100,0.00,,BKN038,0.00,VWS V14.01,2013-09-25 09:01:00,
2013-09-25 02:06:00,48.8,48.8,29.79,SSE,166,0.0,3.0,100,0.00,,BKN038,0.00,VWS V14.01,2013-09-25 09:06:00,
2013-09-25 02:11:00,48.8,48.8,29.79,SSE,166,0.0,3.0,100,0.00,,BKN038,0.00,VWS V14.01,2013-09-25 09:11:00,
2013-09-25 02:16:00,48.8,48.8,29.79,SSE,166,0.0,3.0,100,0.00,,BKN038,0.00,VWS V14.01,2013-09-25 09:16:00,
2013-09-25 02:21:00,48.8,48.8,29.79,SSE,166,0.0,3.0,100,0.00,,BKN038,0.00,VWS V14.01,2013-09-25 09:21:00,
2013-09-25 02:26:00,48.8,48.8,29.79,SSE,166,0.0,3.0,100,0.00,,BKN038,0.00,VWS V14.01,2013-09-25 09:26:00,
2013-09-25 02:31:00,48.6,48.6,29.79,SSE,166,0.0,4.0,100,0.00,,BKN038,0.00,VWS V14.01,2013-09-25 09:31:00,
2013-09-25 02:36:00,48.6,48.6,29.79,SSE,166,0.0,4.0,100,0.00,,BKN038,0.00,VWS V14.01,2013-09-25 09:36:00,
2013-09-25 02:41:00,48.6,48.6,29.79,SSE,166,0.0,4.0,100,0.00,,BKN038,0.00,VWS V14.01,2013-09-25 09:41:00,
2013-09-25 02:46:00,48.6,48.6,29.78,SSE,166,0.0,4.0,100,0.00,,BKN038,0.00,VWS V14.01,2013-09-25 09:46:00,
2013-09-25 02:51:00,48.6,48.6,29.78,SSE,166,0.0,4.0,100,0.00,,BKN038,0.00,VWS V14.01,2013-09-25 09:51:00,
2013-09-25 02:56:00,48.5,48.5,29.78,SSE,166,0.0,4.0,100,0.00,,BKN038,0.00,VWS V14.01,2013-09-25 09:56:00,
2013-09-25 03:01:00,48.5,48.5,29.78,SSE,166,0.0,0.0,100,0.00,,BKN085,0.00,VWS V14.01,2013-09-25 10:01:00,
2013-09-25 03:06:00,48.5,48.5,29.78,SSE,166,0.0,0.0,100,0.00,,BKN085,0.00,VWS V14.01,2013-09-25 10:06:00,
2013-09-25 03:11:00,48.5,48.5,29.78,SSE,166,0.0,1.0,100,0.00,,BKN085,0.00,VWS V14.01,2013-09-25 10:11:00,
2013-09-25 03:16:00,48.5,48.5,29.78,SSE,166,0.0,3.0,100,0.00,,BKN085,0.00,VWS V14.01,2013-09-25 10:16:00,
2013-09-25 03:21:00,48.5,48.5,29.78,SSE,166,0.0,3.0,100,0.00,,BKN085,0.00,VWS V14.01,2013-09-25 10:21:00,
2013-09-25 03:26:00,48.5,48.5,29.78,SSE,166,0.0,3.0,100,0.00,,BKN085,0.00,VWS V14.01,2013-09-25 10:26:00,
2013-09-25 03:31:00,48.5,48.5,29.78,SSE,166,0.0,3.0,100,0.00,,BKN085,0.00,VWS V14.01,2013-09-25 10:31:00,
2013-09-25 03:36:00,48.5,48.5,29.78,SSE,166,1.0,3.0,100,0.00,,BKN085,0.00,VWS V14.01,2013-09-25 10:36:00,
2013-09-25 03:41:00,48.5,48.5,29.78,SSE,166,0.0,3.0,100,0.00,,BKN085,0.00,VWS V14.01,2013-09-25 10:41:00,
2013-09-25 03:46:00,48.3,48.3,29.79,SSE,166,0.0,3.0,100,0.00,,BKN085,0.00,VWS V14.01,2013-09-25 10:46:00,
2013-09-25 03:51:00,48.5,48.5,29.79,SSE,166,0.0,3.0,100,0.00,,BKN085,0.00,VWS V14.01,2013-09-25 10:51:00,
2013-09-25 03:56:00,48.5,48.5,29.79,SSE,166,0.0,3.0,100,0.00,,BKN085,0.00,VWS V14.01,2013-09-25 10:56:00,
2013-09-25 04:01:00,48.5,48.5,29.79,SSE,166,0.0,0.0,100,0.00,,OVC100,0.00,VWS V14.01,2013-09-25 11:01:00,
2013-09-25 04:06:00,48.5,48.5,29.79,SSE,166,0.0,0.0,100,0.00,,OVC100,0.00,VWS V14.01,2013-09-25 11:06:00,
2013-09-25 04:11:00,48.5,48.5,29.79,SSE,166,0.0,1.0,100,0.00,,OVC100,0.00,VWS V14.01,2013-09-25 11:11:00,
2013-09-25 04:16:00,48.3,48.3,29.79,SSE,166,0.0,1.0,100,0.00,,OVC100,0.00,VWS V14.01,2013-09-25 11:16:00,
2013-09-25 04:21:00,48.3,48.3,29.79,SSE,166,0.0,1.0,100,0.00,,OVC100,0.00,VWS V14.01,2013-09-25 11:21:00,
2013-09-25 04:26:00,48.5,48.5,29.79,SSE,166,0.0,1.0,100,0.00,,OVC100,0.00,VWS V14.01,2013-09-25 11:26:00,
2013-09-25 04:31:00,48.5,48.5,29.79,SSE,166,0.0,1.0,100,0.00,,OVC100,0.00,VWS V14.01,2013-09-25 11:31:00,
2013-09-25 04:36:00,48.5,48.5,29.79,SSE,166,0.0,1.0,100,0.00,,OVC100,0.00,VWS V14.01,2013-09-25 11:36:00,
2013-09-25 04:41:00,48.5,48.5,29.79,SSE,166,0.0,1.0,100,0.00,,OVC100,0.00,VWS V14.01,2013-09-25 11:41:00,
2013-09-25 04:46:00,48.3,48.3,29.79,SSE,166,0.0,1.0,100,0.00,,OVC100,0.00,VWS V14.01,2013-09-25 11:46:00,
2013-09-25 04:51:00,48.2,48.2,29.79,SSE,166,0.0,1.0,100,0.00,,OVC100,0.00,VWS V14.01,2013-09-25 11:51:00,
2013-09-25 04:56:00,48.0,48.0,29.79,SSE,166,0.0,1.0,100,0.00,,OVC100,0.00,VWS V14.01,2013-09-25 11:56:00,
2013-09-25 05:01:00,48.0,48.0,29.79,SSE,166,0.0,0.0,100,0.00,,OVC100,0.00,VWS V14.01,2013-09-25 12:01:00,
2013-09-25 05:06:00,48.0,48.0,29.79,SSE,166,0.0,0.0,100,0.00,,OVC100,0.00,VWS V14.01,2013-09-25 12:06:00,
2013-09-25 05:11:00,47.9,47.9,29.79,SSE,166,0.0,0.0,100,0.00,,OVC100,0.00,VWS V14.01,2013-09-25 12:11:00,
2013-09-25 05:16:00,47.9,47.9,29.80,SSE,166,0.0,0.0,100,0.00,,OVC100,0.00,VWS V14.01,2013-09-25 12:16:00,
2013-09-25 05:21:00,47.9,47.9,29.80,SSE,166,0.0,0.0,100,0.00,,OVC100,0.00,VWS V14.01,2013-09-25 12:21:00,
2013-09-25 05:26:00,47.9,47.9,29.80,SSE,166,0.0,0.0,100,0.00,,OVC100,0.00,VWS V14.01,2013-09-25 12:26:00,
2013-09-25 05:27:00,47.9,47.9,29.80,SSE,166,0.0,0.0,100,0.00,,OVC100,0.00,VWS V14.01,2013-09-25 12:27:00,
2013-09-25 05:32:00,47.9,47.9,29.80,SSE,166,0.0,0.0,100,0.00,,OVC100,0.00,VWS V14.01,2013-09-25 12:32:00,
2013-09-25 05:37:00,47.9,47.9,29.80,SSE,166,0.0,0.0,100,0.00,,OVC100,0.00,VWS V14.01,2013-09-25 12:37:00,
2013-09-25 05:42:00,47.9,47.9,29.80,SSE,166,0.0,0.0,100,0.00,,OVC100,0.00,VWS V14.01,2013-09-25 12:42:00,
2013-09-25 05:47:00,47.9,47.9,29.80,SSE,166,0.0,0.0,100,0.01,,OVC100,0.01,VWS V14.01,2013-09-25 12:47:00,
2013-09-25 05:52:00,47.9,47.9,29.80,SSE,166,0.0,0.0,100,0.01,,OVC100,0.01,VWS V14.01,2013-09-25 12:52:00,
2013-09-25 05:57:00,47.9,47.9,29.80,SSE,166,0.0,0.0,100,0.01,,OVC100,0.01,VWS V14.01,2013-09-25 12:57:00,
2013-09-25 06:02:00,47.9,47.9,29.80,SSE,166,0.0,0.0,100,0.01,,BKN065,0.01,VWS V14.01,2013-09-25 13:02:00,
2013-09-25 06:07:00,47.9,47.9,29.80,SSE,166,0.0,0.0,100,0.01,,BKN065,0.01,VWS V14.01,2013-09-25 13:07:00,
2013-09-25 06:12:00,47.9,47.9,29.80,SSE,166,0.0,0.0,100,0.01,,BKN065,0.01,VWS V14.01,2013-09-25 13:12:00,
2013-09-25 06:17:00,48.0,48.0,29.81,SSE,166,0.0,0.0,100,0.01,,BKN065,0.01,VWS V14.01,2013-09-25 13:17:00,
2013-09-25 06:22:00,48.0,48.0,29.81,SSE,166,0.0,0.0,100,0.01,,BKN065,0.01,VWS V14.01,2013-09-25 13:22:00,
2013-09-25 06:27:00,48.0,48.0,29.81,SSE,166,0.0,0.0,100,0.01,,BKN065,0.01,VWS V14.01,2013-09-25 13:27:00,
2013-09-25 06:32:00,48.0,48.0,29.81,SSE,166,0.0,3.0,100,0.01,,BKN065,0.01,VWS V14.01,2013-09-25 13:32:00,
2013-09-25 06:37:00,47.7,47.7,29.81,SSE,166,0.0,3.0,100,0.01,,BKN065,0.01,VWS V14.01,2013-09-25 13:37:00,
2013-09-25 06:42:00,47.6,47.6,29.81,SSE,166,2.0,3.0,100,0.01,,BKN065,0.01,VWS V14.01,2013-09-25 13:42:00,
2013-09-25 06:47:00,47.3,47.3,29.81,SSE,166,0.0,3.0,100,0.01,,BKN065,0.01,VWS V14.01,2013-09-25 13:47:00,
2013-09-25 06:52:00,47.1,47.1,29.81,SSE,166,0.0,3.0,100,0.01,,BKN065,0.01,VWS V14.01,2013-09-25 13:52:00,
2013-09-25 06:57:00,47.1,47.1,29.81,SSE,166,0.0,3.0,100,0.01,,BKN065,0.01,VWS V14.01,2013-09-25 13:57:00,
2013-09-25 07:02:00,47.0,47.0,29.82,SSE,166,0.0,2.0,100,0.00,,-RA,0.01,VWS V14.01,2013-09-25 14:02:00,
2013-09-25 07:07:00,46.8,46.8,29.82,SSE,166,0.0,2.0,100,0.00,,-RA,0.01,VWS V14.01,2013-09-25 14:07:00,
2013-09-25 07:12:00,46.7,46.7,29.82,SSE,166,0.0,2.0,100,0.00,,-RA,0.01,VWS V14.01,2013-09-25 14:12:00,
2013-09-25 07:17:00,46.7,46.7,29.82,SSE,166,0.0,2.0,100,0.00,,-RA,0.01,VWS V14.01,2013-09-25 14:17:00,
2013-09-25 07:22:00,46.5,46.5,29.82,SSE,166,0.0,2.0,100,0.00,,-RA,0.01,VWS V14.01,2013-09-25 14:22:00,
2013-09-25 07:27:00,46.5,46.5,29.82,SSE,166,1.0,2.0,100,0.00,,-RA,0.01,VWS V14.01,2013-09-25 14:27:00,
2013-09-25 07:32:00,46.4,46.4,29.82,SSE,166,0.0,2.0,100,0.00,,-RA,0.01,VWS V14.01,2013-09-25 14:32:00,
2013-09-25 07:37:00,46.4,46.4,29.82,SSE,166,0.0,2.0,100,0.00,,-RA,0.01,VWS V14.01,2013-09-25 14:37:00,
2013-09-25 07:42:00,46.4,46.4,29.82,SSE,166,0.0,2.0,100,0.00,,-RA,0.01,VWS V14.01,2013-09-25 14:42:00,
2013-09-25 07:47:00,46.4,46.4,29.83,SSE,166,0.0,2.0,100,0.00,,-RA,0.01,VWS V14.01,2013-09-25 14:47:00,
2013-09-25 07:52:00,46.4,46.4,29.83,SSE,166,0.0,2.0,100,0.00,,-RA,0.01,VWS V14.01,2013-09-25 14:52:00,
2013-09-25 07:57:00,46.4,46.4,29.83,SSE,166,0.0,2.0,100,0.00,,-RA,0.01,VWS V14.01,2013-09-25 14:57:00,
2013-09-25 08:02:00,46.4,46.4,29.83,SSE,166,0.0,0.0,100,0.00,,OVC030,0.01,VWS V14.01,2013-09-25 15:02:00,
2013-09-25 08:07:00,46.4,46.4,29.83,SSE,166,0.0,1.0,100,0.00,,OVC030,0.01,VWS V14.01,2013-09-25 15:07:00,
2013-09-25 08:12:00,46.4,46.4,29.83,SSE,166,0.0,1.0,100,0.00,,OVC030,0.01,VWS V14.01,2013-09-25 15:12:00,
2013-09-25 08:17:00,46.5,46.5,29.83,SSE,166,0.0,1.0,100,0.00,,OVC030,0.01,VWS V14.01,2013-09-25 15:17:00,
2013-09-25 08:22:00,46.5,46.5,29.83,SSE,166,0.0,1.0,100,0.00,,OVC030,0.01,VWS V14.01,2013-09-25 15:22:00,
2013-09-25 08:27:00,46.5,46.5,29.83,SSE,166,0.0,1.0,100,0.00,,OVC030,0.01,VWS V14.01,2013-09-25 15:27:00,
2013-09-25 08:32:00,46.7,46.7,29.83,SSE,166,0.0,1.0,100,0.00,,OVC030,0.01,VWS V14.01,2013-09-25 15:32:00,
2013-09-25 08:37:00,46.8,46.8,29.83,SSE,166,0.0,1.0,100,0.00,,OVC030,0.01,VWS V14.01,2013-09-25 15:37:00,
2013-09-25 08:42:00,47.0,47.0,29.83,SSE,166,0.0,1.0,100,0.00,,OVC030,0.01,VWS V14.01,2013-09-25 15:42:00,
2013-09-25 08:47:00,47.1,47.1,29.84,SSE,166,0.0,1.0,100,0.00,,OVC030,0.01,VWS V14.01,2013-09-25 15:47:00,
2013-09-25 08:52:00,47.3,47.3,29.84,SSE,166,0.0,2.0,100,0.00,,OVC030,0.01,VWS V14.01,2013-09-25 15:52:00,
2013-09-25 08:57:00,47.3,47.3,29.84,SSE,166,0.0,3.0,100,0.00,,OVC030,0.01,VWS V14.01,2013-09-25 15:57:00,
2013-09-25 09:02:00,47.1,47.1,29.85,SSE,166,0.0,0.0,100,0.00,,OVC046,0.01,VWS V14.01,2013-09-25 16:02:00,
2013-09-25 09:07:00,47.1,47.1,29.85,SSE,166,0.0,2.0,100,0.00,,OVC046,0.01,VWS V14.01,2013-09-25 16:07:00,
2013-09-25 09:12:00,47.1,47.1,29.85,SSE,166,0.0,2.0,100,0.00,,OVC046,0.01,VWS V14.01,2013-09-25 16:12:00,
2013-09-25 09:17:00,47.3,47.3,29.85,SSE,166,0.0,2.0,100,0.00,,OVC046,0.01,VWS V14.01,2013-09-25 16:17:00,
2013-09-25 09:22:00,47.4,47.4,29.85,SSE,166,0.0,2.0,100,0.00,,OVC046,0.01,VWS V14.01,2013-09-25 16:22:00,
2013-09-25 09:27:00,47.6,47.6,29.85,SSE,166,0.0,2.0,100,0.00,,OVC046,0.01,VWS V14.01,2013-09-25 16:27:00,
2013-09-25 09:32:00,47.7,47.7,29.85,SSE,166,0.0,2.0,100,0.00,,OVC046,0.01,VWS V14.01,2013-09-25 16:32:00,
2013-09-25 09:37:00,47.9,47.9,29.85,SSE,166,0.0,2.0,100,0.00,,OVC046,0.01,VWS V14.01,2013-09-25 16:37:00,
2013-09-25 09:42:00,48.0,48.0,29.85,SSE,166,0.0,2.0,100,0.00,,OVC046,0.01,VWS V14.01,2013-09-25 16:42:00,
2013-09-25 09:47:00,48.0,48.0,29.85,SSE,166,0.0,2.0,100,0.00,,OVC046,0.01,VWS V14.01,2013-09-25 16:47:00,
2013-09-25 09:52:00,48.0,48.0,29.85,SSE,166,0.0,2.0,100,0.00,,OVC046,0.01,VWS V14.01,2013-09-25 16:52:00,
2013-09-25 09:57:00,47.9,47.9,29.85,SSE,166,0.0,3.0,100,0.00,,OVC046,0.01,VWS V14.01,2013-09-25 16:57:00,
2013-09-25 10:02:00,47.9,47.9,29.86,SSE,166,0.0,0.0,100,0.00,,BKN046,0.01,VWS V14.01,2013-09-25 17:02:00,
2013-09-25 10:07:00,47.9,47.9,29.86,SSE,166,0.0,1.0,100,0.00,,BKN046,0.01,VWS V14.01,2013-09-25 17:07:00,
2013-09-25 10:12:00,48.2,48.2,29.86,SSE,166,0.0,1.0,100,0.00,,BKN046,0.01,VWS V14.01,2013-09-25 17:12:00,
2013-09-25 10:17:00,48.9,48.9,29.86,SSE,166,0.0,3.0,100,0.00,,BKN046,0.01,VWS V14.01,2013-09-25 17:17:00,
2013-09-25 10:22:00,49.4,49.4,29.86,SSE,166,0.0,3.0,100,0.00,,BKN046,0.01,VWS V14.01,2013-09-25 17:22:00,
2013-09-25 10:27:00,50.1,50.1,29.86,SSE,166,0.0,3.0,100,0.00,,BKN046,0.01,VWS V14.01,2013-09-25 17:27:00,
2013-09-25 10:32:00,50.4,50.4,29.86,SSE,166,0.0,3.0,100,0.00,,BKN046,0.01,VWS V14.01,2013-09-25 17:32:00,
2013-09-25 10:37:00,51.4,51.4,29.86,SSE,166,0.0,3.0,100,0.00,,BKN046,0.01,VWS V14.01,2013-09-25 17:37:00,
2013-09-25 10:42:00,51.7,51.7,29.86,SSE,166,0.0,3.0,100,0.00,,BKN046,0.01,VWS V14.01,2013-09-25 17:42:00,
2013-09-25 10:47:00,51.4,51.4,29.86,SSE,166,0.0,3.0,100,0.00,,BKN046,0.01,VWS V14.01,2013-09-25 17:47:00,
2013-09-25 10:52:00,51.6,51.6,29.86,SSE,166,0.0,3.0,100,0.00,,BKN046,0.01,VWS V14.01,2013-09-25 17:52:00,
2013-09-25 10:57:00,50.8,50.8,29.86,SSE,166,0.0,3.0,100,0.00,,BKN046,0.01,VWS V14.01,2013-09-25 17:57:00,
2013-09-25 11:02:00,50.5,50.5,29.86,SSE,166,0.0,2.0,100,0.00,,BKN200,0.01,VWS V14.01,2013-09-25 18:02:00,
2013-09-25 11:07:00,50.4,50.4,29.86,SSE,166,0.0,2.0,100,0.00,,BKN200,0.01,VWS V14.01,2013-09-25 18:07:00,
2013-09-25 11:12:00,50.4,50.4,29.86,SSE,166,0.0,2.0,100,0.01,,BKN200,0.02,VWS V14.01,2013-09-25 18:12:00,
2013-09-25 11:17:00,50.2,50.2,29.87,SSE,166,0.0,2.0,100,0.01,,BKN200,0.02,VWS V14.01,2013-09-25 18:17:00,
2013-09-25 11:22:00,50.2,50.2,29.87,SSE,166,0.0,2.0,100,0.01,,BKN200,0.02,VWS V14.01,2013-09-25 18:22:00,
2013-09-25 11:27:00,50.4,50.4,29.87,SSE,166,3.0,4.0,100,0.01,,BKN200,0.02,VWS V14.01,2013-09-25 18:27:00,
2013-09-25 11:32:00,50.2,50.2,29.87,SSE,166,0.0,4.0,100,0.01,,BKN200,0.02,VWS V14.01,2013-09-25 18:32:00,
2013-09-25 11:37:00,50.7,50.7,29.87,SSE,166,0.0,4.0,100,0.01,,BKN200,0.02,VWS V14.01,2013-09-25 18:37:00,
2013-09-25 11:42:00,51.3,51.3,29.87,SSE,166,0.0,4.0,100,0.01,,BKN200,0.02,VWS V14.01,2013-09-25 18:42:00,
2013-09-25 11:47:00,51.6,51.6,29.87,SSE,166,0.0,4.0,100,0.01,,BKN200,0.02,VWS V14.01,2013-09-25 18:47:00,
2013-09-25 11:52:00,51.7,51.7,29.87,SSE,166,0.0,4.0,100,0.01,,BKN200,0.02,VWS V14.01,2013-09-25 18:52:00,
2013-09-25 11:57:00,52.5,52.5,29.87,SSE,166,0.0,4.0,100,0.01,,BKN200,0.02,VWS V14.01,2013-09-25 18:57:00,
2013-09-25 12:02:00,53.2,53.2,29.87,SSE,166,0.0,1.0,100,0.01,,BKN170,0.02,VWS V14.01,2013-09-25 19:02:00,
2013-09-25 12:07:00,52.9,52.9,29.87,SSE,166,0.0,2.0,100,0.01,,BKN170,0.02,VWS V14.01,2013-09-25 19:07:00,
2013-09-25 12:12:00,52.9,52.9,29.87,SSE,166,0.0,2.0,100,0.01,,BKN170,0.02,VWS V14.01,2013-09-25 19:12:00,
2013-09-25 12:17:00,52.6,52.3,29.87,SSE,166,0.0,2.0,99,0.01,,BKN170,0.02,VWS V14.01,2013-09-25 19:17:00,
2013-09-25 12:22:00,52.3,51.8,29.87,SSE,166,0.0,2.0,98,0.01,,BKN170,0.02,VWS V14.01,2013-09-25 19:22:00,
2013-09-25 12:27:00,52.5,52.0,29.87,SSE,166,0.0,2.0,98,0.01,,BKN170,0.02,VWS V14.01,2013-09-25 19:27:00,
2013-09-25 12:32:00,52.8,52.0,29.87,SSE,166,0.0,2.0,97,0.01,,BKN170,0.02,VWS V14.01,2013-09-25 19:32:00,
2013-09-25 12:37:00,53.3,52.8,29.87,SSE,166,0.0,2.0,98,0.01,,BKN170,0.02,VWS V14.01,2013-09-25 19:37:00,
2013-09-25 12:42:00,53.6,52.5,29.87,SSE,166,0.0,2.0,96,0.01,,BKN170,0.02,VWS V14.01,2013-09-25 19:42:00,
2013-09-25 12:47:00,53.2,51.5,29.87,SSE,166,0.0,2.0,94,0.01,,BKN170,0.02,VWS V14.01,2013-09-25 19:47:00,
2013-09-25 12:52:00,53.2,51.5,29.87,SSE,166,0.0,2.0,94,0.01,,BKN170,0.02,VWS V14.01,2013-09-25 19:52:00,
2013-09-25 12:57:00,52.9,51.2,29.87,SSE,166,0.0,2.0,94,0.01,,BKN170,0.02,VWS V14.01,2013-09-25 19:57:00,
2013-09-25 13:02:00,52.8,51.1,29.87,SSE,166,0.0,0.0,94,0.00,,OVC060,0.02,VWS V14.01,2013-09-25 20:02:00,
2013-09-25 13:07:00,52.8,51.4,29.87,SSE,166,0.0,0.0,95,0.00,,OVC060,0.02,VWS V14.01,2013-09-25 20:07:00,
2013-09-25 13:12:00,52.9,51.5,29.87,SSE,166,0.0,0.0,95,0.00,,OVC060,0.02,VWS V14.01,2013-09-25 20:12:00,
2013-09-25 13:17:00,53.1,51.7,29.87,SSE,166,2.0,3.0,95,0.00,,OVC060,0.02,VWS V14.01,2013-09-25 20:17:00,
2013-09-25 13:22:00,53.3,51.3,29.87,South,170,0.0,4.0,93,0.00,,OVC060,0.02,VWS V14.01,2013-09-25 20:22:00,
2013-09-25 13:27:00,54.5,53.1,29.87,South,170,0.0,4.0,95,0.00,,OVC060,0.02,VWS V14.01,2013-09-25 20:27:00,
2013-09-25 13:32:00,55.1,52.5,29.87,South,170,0.0,4.0,91,0.00,,OVC060,0.02,VWS V14.01,2013-09-25 20:32:00,
2013-09-25 13:37:00,54.7,50.9,29.87,South,170,0.0,4.0,87,0.00,,OVC060,0.02,VWS V14.01,2013-09-25 20:37:00,
2013-09-25 13:42:00,53.9,49.5,29.87,South,170,0.0,4.0,85,0.00,,OVC060,0.02,VWS V14.01,2013-09-25 20:42:00,
2013-09-25 13:47:00,53.2,48.2,29.88,South,170,0.0,4.0,83,0.00,,OVC060,0.02,VWS V14.01,2013-09-25 20:47:00,
2013-09-25 13:52:00,53.8,50.3,29.88,South,170,0.0,4.0,88,0.00,,OVC060,0.02,VWS V14.01,2013-09-25 20:52:00,
2013-09-25 13:57:00,55.0,51.2,29.88,South,170,0.0,4.0,87,0.00,,OVC060,0.02,VWS V14.01,2013-09-25 20:57:00,
2013-09-25 14:02:00,55.7,50.6,29.88,South,170,0.0,0.0,83,0.00,,OVC060,0.02,VWS V14.01,2013-09-25 21:02:00,
2013-09-25 14:07:00,55.6,50.2,29.88,South,170,0.0,3.0,82,0.00,,OVC060,0.02,VWS V14.01,2013-09-25 21:07:00,
2013-09-25 14:12:00,54.8,50.4,29.88,South,170,0.0,3.0,85,0.00,,OVC060,0.02,VWS V14.01,2013-09-25 21:12:00,
2013-09-25 14:17:00,54.4,49.3,29.88,South,170,0.0,3.0,83,0.00,,OVC060,0.02,VWS V14.01,2013-09-25 21:17:00,
2013-09-25 14:22:00,53.9,48.5,29.88,South,170,0.0,3.0,82,0.00,,OVC060,0.02,VWS V14.01,2013-09-25 21:22:00,
2013-09-25 14:27:00,53.8,47.1,29.88,South,170,2.0,3.0,78,0.00,,OVC060,0.02,VWS V14.01,2013-09-25 21:27:00,
2013-09-25 14:32:00,53.9,46.9,29.88,South,170,0.0,3.0,77,0.00,,OVC055,0.02,VWS V14.01,2013-09-25 21:32:00,
2013-09-25 14:37:00,54.2,47.2,29.88,South,170,0.0,3.0,77,0.00,,OVC055,0.02,VWS V14.01,2013-09-25 21:37:00,
2013-09-25 14:42:00,55.0,47.6,29.88,South,170,0.0,3.0,76,0.00,,OVC055,0.02,VWS V14.01,2013-09-25 21:42:00,
2013-09-25 14:47:00,55.3,47.9,29.88,South,170,0.0,3.0,76,0.00,,OVC055,0.02,VWS V14.01,2013-09-25 21:47:00,
2013-09-25 14:52:00,55.1,46.6,29.88,South,170,0.0,3.0,73,0.00,,OVC055,0.02,VWS V14.01,2013-09-25 21:52:00,
2013-09-25 14:57:00,54.8,46.3,29.88,South,170,0.0,3.0,73,0.00,,OVC055,0.02,VWS V14.01,2013-09-25 21:57:00,
2013-09-25 15:02:00,54.4,46.7,29.89,South,170,0.0,0.0,75,0.00,,OVC055,0.02,VWS V14.01,2013-09-25 22:02:00,
2013-09-25 15:07:00,54.2,47.2,29.89,South,170,0.0,0.0,77,0.00,,OVC055,0.02,VWS V14.01,2013-09-25 22:07:00,
2013-09-25 15:12:00,54.1,47.1,29.89,South,170,0.0,0.0,77,0.00,,OVC055,0.02,VWS V14.01,2013-09-25 22:12:00,
2013-09-25 15:17:00,53.9,47.5,29.89,South,170,0.0,0.0,79,0.00,,OVC055,0.02,VWS V14.01,2013-09-25 22:17:00,
2013-09-25 15:22:00,53.9,46.9,29.89,South,170,0.0,0.0,77,0.00,,OVC055,0.02,VWS V14.01,2013-09-25 22:22:00,
2013-09-25 15:27:00,54.1,47.4,29.89,South,170,0.0,1.0,78,0.00,,OVC055,0.02,VWS V14.01,2013-09-25 22:27:00,
2013-09-25 15:32:00,54.1,47.1,29.89,South,170,0.0,1.0,77,0.00,,BKN070,0.02,VWS V14.01,2013-09-25 22:32:00,
2013-09-25 15:37:00,54.5,47.5,29.89,South,170,0.0,1.0,77,0.00,,BKN070,0.02,VWS V14.01,2013-09-25 22:37:00,
2013-09-25 15:42:00,55.3,48.2,29.89,South,170,1.0,1.0,77,0.00,,BKN070,0.02,VWS V14.01,2013-09-25 22:42:00,
2013-09-25 15:47:00,55.4,46.5,29.89,South,170,2.0,4.0,72,0.00,,BKN070,0.02,VWS V14.01,2013-09-25 22:47:00,
2013-09-25 15:52:00,55.4,45.8,29.89,South,170,0.0,6.0,70,0.00,,BKN070,0.02,VWS V14.01,2013-09-25 22:52:00,
2013-09-25 15:57:00,55.9,45.5,29.89,NW,310,0.0,6.0,68,0.00,,BKN070,0.02,VWS V14.01,2013-09-25 22:57:00,
2013-09-25 16:02:00,55.9,44.3,29.89,NNW,330,5.0,5.0,65,0.00,,BKN070,0.02,VWS V14.01,2013-09-25 23:02:00,
2013-09-25 16:07:00,55.6,43.6,29.89,North,0,2.0,7.0,64,0.00,,BKN070,0.02,VWS V14.01,2013-09-25 23:07:00,
2013-09-25 16:12:00,55.7,44.5,29.89,NNW,340,2.0,12.0,66,0.00,,BKN070,0.02,VWS V14.01,2013-09-25 23:12:00,
2013-09-25 16:17:00,55.6,44.8,29.90,North,352,6.0,12.0,67,0.00,,BKN070,0.02,VWS V14.01,2013-09-25 23:17:00,
2013-09-25 16:22:00,54.8,44.5,29.90,North,354,4.0,12.0,68,0.00,,BKN070,0.02,VWS V14.01,2013-09-25 23:22:00,
2013-09-25 16:27:00,54.5,44.5,29.90,North,1,2.0,12.0,69,0.00,,BKN070,0.02,VWS V14.01,2013-09-25 23:27:00,
2013-09-25 16:32:00,54.2,44.3,29.90,North,352,7.0,12.0,69,0.00,,BKN170,0.02,VWS V14.01,2013-09-25 23:32:00,
2013-09-25 16:37:00,54.1,44.2,29.90,WSW,254,4.0,12.0,69,0.00,,BKN170,0.02,VWS V14.01,2013-09-25 23:37:00,
2013-09-25 16:42:00,53.9,44.3,29.90,NNW,341,3.0,12.0,70,0.00,,BKN170,0.02,VWS V14.01,2013-09-25 23:42:00,
2013-09-25 16:47:00,54.1,44.5,29.90,North,355,0.0,12.0,70,0.00,,BKN170,0.02,VWS V14.01,2013-09-25 23:47:00,
2013-09-25 16:52:00,54.1,44.5,29.90,NNW,331,3.0,12.0,70,0.00,,BKN170,0.02,VWS V14.01,2013-09-25 23:52:00,
2013-09-25 16:57:00,54.1,44.9,29.90,NNW,337,6.0,12.0,71,0.00,,BKN170,0.02,VWS V14.01,2013-09-25 23:57:00,
2013-09-25 17:02:00,54.1,45.3,29.90,NNW,333,6.0,6.0,72,0.00,,BKN170,0.02,VWS V14.01,2013-09-26 00:02:00,
2013-09-25 17:07:00,53.9,44.0,29.90,NNW,340,5.0,9.0,69,0.00,,BKN170,0.02,VWS V14.01,2013-09-26 00:07:00,
2013-09-25 17:12:00,53.9,44.0,29.90,NNW,343,3.0,9.0,69,0.00,,BKN170,0.02,VWS V14.01,2013-09-26 00:12:00,
2013-09-25 17:17:00,53.9,44.0,29.91,NNW,343,5.0,11.0,69,0.00,,BKN170,0.02,VWS V14.01,2013-09-26 00:17:00,
2013-09-25 17:22:00,53.9,44.0,29.91,NNW,339,1.0,11.0,69,0.00,,BKN170,0.02,VWS V14.01,2013-09-26 00:22:00,
2013-09-25 17:27:00,54.1,44.2,29.91,NNW,336,4.0,11.0,69,0.00,,BKN170,0.02,VWS V14.01,2013-09-26 00:27:00,
2013-09-25 17:32:00,53.9,43.6,29.91,NNW,342,3.0,11.0,68,0.00,,BKN075,0.02,VWS V14.01,2013-09-26 00:32:00,
2013-09-25 17:37:00,53.8,43.9,29.91,NNW,345,4.0,11.0,69,0.00,,BKN075,0.02,VWS V14.01,2013-09-26 00:37:00,
2013-09-25 17:42:00,53.5,43.6,29.91,NNW,345,2.0,11.0,69,0.00,,BKN075,0.02,VWS V14.01,2013-09-26 00:42:00,
2013-09-25 17:47:00,53.5,44.0,29.92,NNW,345,2.0,11.0,70,0.00,,BKN075,0.02,VWS V14.01,2013-09-26 00:47:00,
2013-09-25 17:52:00,53.3,44.2,29.92,NNW,345,0.0,11.0,71,0.00,,BKN075,0.02,VWS V14.01,2013-09-26 00:52:00,
2013-09-25 17:57:00,53.2,44.0,29.92,NNW,345,0.0,11.0,71,0.00,,BKN075,0.02,VWS V14.01,2013-09-26 00:57:00,
2013-09-25 18:02:00,53.2,44.4,29.92,NNW,345,0.0,0.0,72,0.00,,BKN075,0.02,VWS V14.01,2013-09-26 01:02:00,
2013-09-25 18:07:00,53.2,44.8,29.92,NNW,345,0.0,0.0,73,0.00,,BKN075,0.02,VWS V14.01,2013-09-26 01:07:00,
2013-09-25 18:12:00,53.1,44.7,29.92,NNW,345,0.0,2.0,73,0.00,,BKN075,0.02,VWS V14.01,2013-09-26 01:12:00,
2013-09-25 18:17:00,53.1,44.7,29.92,NNW,345,0.0,2.0,73,0.00,,BKN075,0.02,VWS V14.01,2013-09-26 01:17:00,
2013-09-25 18:22:00,53.2,44.8,29.92,NNW,345,2.0,3.0,73,0.00,,BKN075,0.02,VWS V14.01,2013-09-26 01:22:00,
2013-09-25 18:27:00,53.2,45.1,29.92,NNW,345,0.0,3.0,74,0.00,,BKN075,0.02,VWS V14.01,2013-09-26 01:27:00,
2013-09-25 18:32:00,53.1,45.0,29.92,NNW,345,0.0,4.0,74,0.00,,BKN075,0.02,VWS V14.01,2013-09-26 01:32:00,
2013-09-25 18:37:00,53.1,45.0,29.92,NNW,345,0.0,4.0,74,0.00,,BKN075,0.02,VWS V14.01,2013-09-26 01:37:00,
2013-09-25 18:42:00,52.9,44.8,29.92,NNW,345,0.0,4.0,74,0.00,,BKN075,0.02,VWS V14.01,2013-09-26 01:42:00,
2013-09-25 18:47:00,52.8,45.1,29.92,NNW,345,0.0,4.0,75,0.00,,BKN075,0.02,VWS V14.01,2013-09-26 01:47:00,
2013-09-25 18:52:00,52.6,45.3,29.92,NNW,345,1.0,4.0,76,0.00,,BKN075,0.02,VWS V14.01,2013-09-26 01:52:00,
2013-09-25 18:57:00,52.5,44.8,29.92,NNW,345,2.0,4.0,75,0.00,,BKN075,0.02,VWS V14.01,2013-09-26 01:57:00,
2013-09-25 19:02:00,52.5,44.1,29.92,NNW,345,1.0,3.0,73,0.00,,BKN075,0.02,VWS V14.01,2013-09-26 02:02:00,
2013-09-25 19:07:00,52.5,44.1,29.92,NNW,345,4.0,5.0,73,0.00,,BKN075,0.02,VWS V14.01,2013-09-26 02:07:00,
2013-09-25 19:12:00,52.5,44.1,29.92,NNW,345,3.0,6.0,73,0.00,,BKN075,0.02,VWS V14.01,2013-09-26 02:12:00,
2013-09-25 19:17:00,52.5,44.1,29.93,NNW,345,1.0,6.0,73,0.00,,BKN075,0.02,VWS V14.01,2013-09-26 02:17:00,
2013-09-25 19:22:00,52.3,43.9,29.93,NNW,345,0.0,6.0,73,0.00,,BKN075,0.02,VWS V14.01,2013-09-26 02:22:00,
2013-09-25 19:27:00,52.3,43.9,29.93,NNW,345,0.0,6.0,73,0.00,,BKN075,0.02,VWS V14.01,2013-09-26 02:27:00,
2013-09-25 19:32:00,52.2,43.8,29.93,NNW,345,0.0,6.0,73,0.00,,SCT170,0.02,VWS V14.01,2013-09-26 02:32:00,
2013-09-25 19:37:00,52.0,43.6,29.93,NNW,345,1.0,6.0,73,0.00,,SCT170,0.02,VWS V14.01,2013-09-26 02:37:00,
2013-09-25 19:42:00,52.0,43.6,29.93,NNW,345,3.0,6.0,73,0.00,,SCT170,0.02,VWS V14.01,2013-09-26 02:42:00,
2013-09-25 19:47:00,52.0,43.6,29.94,NNW,345,1.0,6.0,73,0.00,,SCT170,0.02,VWS V14.01,2013-09-26 02:47:00,
2013-09-25 19:52:00,51.9,43.9,29.94,North,355,2.0,11.0,74,0.00,,SCT170,0.02,VWS V14.01,2013-09-26 02:52:00,
2013-09-25 19:57:00,51.7,43.7,29.94,North,355,0.0,11.0,74,0.00,,SCT170,0.02,VWS V14.01,2013-09-26 02:57:00,
2013-09-25 20:02:00,51.7,43.7,29.94,North,355,0.0,5.0,74,0.00,,SCT170,0.02,VWS V14.01,2013-09-26 03:02:00,
2013-09-25 20:07:00,51.7,43.7,29.94,North,355,3.0,5.0,74,0.00,,SCT170,0.02,VWS V14.01,2013-09-26 03:07:00,
2013-09-25 20:12:00,51.9,44.2,29.94,North,354,2.0,5.0,75,0.00,,SCT170,0.02,VWS V14.01,2013-09-26 03:12:00,
2013-09-25 20:17:00,51.9,44.2,29.94,NNW,333,3.0,5.0,75,0.00,,SCT170,0.02,VWS V14.01,2013-09-26 03:17:00,
2013-09-25 20:22:00,51.9,44.2,29.94,NNW,335,0.0,5.0,75,0.00,,SCT170,0.02,VWS V14.01,2013-09-26 03:22:00,
2013-09-25 20:27:00,51.7,44.0,29.94,NNW,330,1.0,5.0,75,0.00,,SCT170,0.02,VWS V14.01,2013-09-26 03:27:00,
2013-09-25 20:32:00,51.7,44.0,29.94,North,356,3.0,8.0,75,0.00,,SCT075,0.02,VWS V14.01,2013-09-26 03:32:00,
2013-09-25 20:37:00,51.7,44.0,29.94,North,356,2.0,8.0,75,0.00,,SCT075,0.02,VWS V14.01,2013-09-26 03:37:00,
2013-09-25 20:42:00,51.7,44.0,29.94,North,353,1.0,8.0,75,0.00,,SCT075,0.02,VWS V14.01,2013-09-26 03:42:00,
2013-09-25 20:47:00,51.7,43.7,29.95,North,354,5.0,8.0,74,0.00,,SCT075,0.02,VWS V14.01,2013-09-26 03:47:00,
2013-09-25 20:52:00,51.7,43.7,29.95,North,354,1.0,8.0,74,0.00,,SCT075,0.02,VWS V14.01,2013-09-26 03:52:00,
2013-09-25 20:57:00,51.7,43.7,29.95,North,354,3.0,8.0,74,0.00,,SCT075,0.02,VWS V14.01,2013-09-26 03:57:00,
2013-09-25 21:01:00,51.7,43.7,29.95,North,354,0.0,1.0,74,0.00,,SCT075,0.02,VWS V14.01,2013-09-26 04:01:00,
2013-09-25 21:06:00,51.7,43.7,29.95,North,354,0.0,3.0,74,0.00,,SCT075,0.02,VWS V14.01,2013-09-26 04:06:00,
2013-09-25 21:11:00,51.6,43.6,29.95,North,354,0.0,3.0,74,0.00,,SCT075,0.02,VWS V14.01,2013-09-26 04:11:00,
2013-09-25 21:16:00,51.3,43.7,29.95,North,354,0.0,3.0,75,0.00,,SCT075,0.02,VWS V14.01,2013-09-26 04:16:00,
2013-09-25 21:21:00,51.0,43.7,29.95,North,354,0.0,3.0,76,0.00,,SCT075,0.02,VWS V14.01,2013-09-26 04:21:00,
2013-09-25 21:26:00,50.7,43.8,29.95,North,354,0.0,3.0,77,0.00,,SCT075,0.02,VWS V14.01,2013-09-26 04:26:00,
2013-09-25 21:31:00,50.4,43.8,29.96,North,354,0.0,3.0,78,0.00,,FEW070,0.02,VWS V14.01,2013-09-26 04:31:00,
2013-09-25 21:36:00,50.2,43.6,29.96,North,354,0.0,3.0,78,0.00,,FEW070,0.02,VWS V14.01,2013-09-26 04:36:00,
2013-09-25 21:41:00,50.1,43.5,29.96,North,354,0.0,3.0,78,0.00,,FEW070,0.02,VWS V14.01,2013-09-26 04:41:00,
2013-09-25 21:46:00,50.1,43.8,29.96,North,354,0.0,3.0,79,0.00,,FEW070,0.02,VWS V14.01,2013-09-26 04:46:00,
2013-09-25 21:51:00,49.9,43.7,29.96,North,354,0.0,3.0,79,0.00,,FEW070,0.02,VWS V14.01,2013-09-26 04:51:00,
2013-09-25 21:56:00,49.8,43.6,29.96,North,354,0.0,3.0,79,0.00,,FEW070,0.02,VWS V14.01,2013-09-26 04:56:00,
2013-09-25 22:01:00,49.9,43.3,29.95,North,354,0.0,0.0,78,0.00,,FEW070,0.02,VWS V14.01,2013-09-26 05:01:00,
2013-09-25 22:06:00,49.9,43.3,29.95,North,354,0.0,1.0,78,0.00,,FEW070,0.02,VWS V14.01,2013-09-26 05:06:00,
2013-09-25 22:11:00,49.8,43.6,29.95,North,354,0.0,1.0,79,0.00,,FEW070,0.02,VWS V14.01,2013-09-26 05:11:00,
2013-09-25 22:16:00,49.8,43.6,29.96,North,354,0.0,1.0,79,0.00,,FEW070,0.02,VWS V14.01,2013-09-26 05:16:00,
2013-09-25 22:21:00,49.6,43.4,29.96,North,354,0.0,1.0,79,0.00,,FEW070,0.02,VWS V14.01,2013-09-26 05:21:00,
2013-09-25 22:26:00,49.5,43.6,29.96,North,354,0.0,1.0,80,0.00,,FEW070,0.02,VWS V14.01,2013-09-26 05:26:00,
2013-09-25 22:31:00,49.4,43.8,29.95,North,354,0.0,1.0,81,0.00,,FEW070,0.02,VWS V14.01,2013-09-26 05:31:00,
2013-09-25 22:36:00,49.2,44.0,29.95,North,354,0.0,1.0,82,0.00,,FEW070,0.02,VWS V14.01,2013-09-26 05:36:00,
2013-09-25 22:41:00,49.1,44.2,29.95,North,354,0.0,1.0,83,0.00,,FEW070,0.02,VWS V14.01,2013-09-26 05:41:00,
2013-09-25 22:46:00,49.1,44.8,29.96,North,354,0.0,1.0,85,0.00,,FEW070,0.02,VWS V14.01,2013-09-26 05:46:00,
2013-09-25 22:51:00,48.9,45.2,29.96,North,354,0.0,1.0,87,0.00,,FEW070,0.02,VWS V14.01,2013-09-26 05:51:00,
2013-09-25 22:56:00,48.8,45.7,29.96,North,354,0.0,1.0,89,0.00,,FEW070,0.02,VWS V14.01,2013-09-26 05:56:00,
2013-09-25 23:01:00,48.8,46.3,29.96,North,354,0.0,0.0,91,0.00,,FEW050,0.02,VWS V14.01,2013-09-26 06:01:00,
2013-09-25 23:06:00,48.8,46.6,29.96,North,354,0.0,0.0,92,0.00,,FEW050,0.02,VWS V14.01,2013-09-26 06:06:00,
2013-09-25 23:11:00,48.8,46.9,29.96,North,354,0.0,1.0,93,0.00,,FEW050,0.02,VWS V14.01,2013-09-26 06:11:00,
2013-09-25 23:16:00,48.8,47.2,29.96,North,354,0.0,1.0,94,0.00,,FEW050,0.02,VWS V14.01,2013-09-26 06:16:00,
2013-09-25 23:21:00,48.8,47.4,29.96,North,354,0.0,1.0,95,0.00,,FEW050,0.02,VWS V14.01,2013-09-26 06:21:00,
2013-09-25 23:26:00,48.6,47.5,29.96,North,354,0.0,2.0,96,0.00,,FEW050,0.02,VWS V14.01,2013-09-26 06:26:00,
2013-09-25 23:31:00,48.6,47.5,29.97,North,354,0.0,2.0,96,0.00,,FEW050,0.02,VWS V14.01,2013-09-26 06:31:00,
2013-09-25 23:36:00,48.5,47.4,29.97,North,354,0.0,2.0,96,0.00,,FEW050,0.02,VWS V14.01,2013-09-26 06:36:00,
2013-09-25 23:41:00,48.6,47.5,29.97,North,354,0.0,2.0,96,0.00,,FEW050,0.02,VWS V14.01,2013-09-26 06:41:00,
2013-09-25 23:46:00,48.5,47.7,29.97,North,354,0.0,3.0,97,0.00,,FEW050,0.02,VWS V14.01,2013-09-26 06:46:00,
2013-09-25 23:51:00,48.5,47.7,29.97,North,354,0.0,3.0,97,0.00,,FEW050,0.02,VWS V14.01,2013-09-26 06:51:00,
2013-09-25 23:56:00,48.2,47.7,29.97,North,354,0.0,3.0,98,0.00,,FEW050,0.02,VWS V14.01,2013-09-26 06:56:00,